Home > Products > Valid Products > TAF

000
FTUS43 KPAH 301100
TAFCGI
TAF
KCGI 301120Z 3012/3112 01008KT P6SM BKN035
     FM301300 01006KT P6SM SKC=



000
FTUS43 KPAH 301100
TAFEVV
TAF
KEVV 301120Z 3012/3112 34010KT P6SM OVC035
     FM301330 36007KT P6SM SCT035
     FM301700 36003KT P6SM SKC=



000
FTUS43 KPAH 301100
TAFPAH
TAF
KPAH 301120Z 3012/3112 34010KT P6SM OVC030
     FM301600 01005KT P6SM SCT035
     FM301900 36003KT P6SM SKC=



000
FTUS43 KPAH 300800 AAA
TAFCGI
TAF AMD
KCGI 300821Z 3008/3106 34014G20KT P6SM OVC035
     FM301200 01008KT P6SM SCT020
     FM301800 36003KT P6SM SKC=



000
FTUS43 KPAH 300500
TAFCGI
TAF
KCGI 300520Z 3006/3106 34011G18KT P6SM OVC027
     FM300830 34009G16KT P6SM OVC018
     FM301600 01006KT P6SM SCT020
     FM301800 36003KT P6SM SKC=



000
FTUS43 KPAH 300500
TAFPAH
TAF
KPAH 300520Z 3006/3106 34006G18KT P6SM OVC026
     FM301430 36007KT P6SM OVC025
     FM301700 01005KT P6SM SCT022
     FM301900 36003KT P6SM SKC=



000
FTUS43 KPAH 300500
TAFEVV
TAF
KEVV 300520Z 3006/3106 34006KT P6SM OVC030
     FM301400 36007KT P6SM BKN035
     FM301700 36003KT P6SM SKC=



000
FTUS43 KPAH 300200 AAA
TAFEVV
TAF AMD
KEVV 300207Z 3002/3024 34011G18KT P6SM OVC030
      TEMPO 3002/3005 32006KT OVC020
     FM300515 34006G18KT P6SM OVC026
     FM301800 36007KT P6SM BKN028
     FM302200 36003KT P6SM SKC=



000
FTUS43 KPAH 300200 AAA
TAFPAH
TAF AMD
KPAH 300206Z 3002/3024 34011G18KT P6SM OVC035
      TEMPO 3002/3005 32005KT OVC040
     FM300515 34006G18KT P6SM OVC026
     FM300830 34009G16KT P6SM OVC019
     FM301430 36007KT P6SM OVC022
     FM302000 01005KT P6SM SCT022
     FM302200 36003KT P6SM SKC=



000
FTUS43 KPAH 300200 AAA
TAFCGI
TAF AMD
KCGI 300205Z 3002/3024 34011G18KT P6SM OVC027
      TEMPO 3002/3005 33006KT OVC035
     FM300830 34009G16KT P6SM OVC018
     FM301800 01006KT P6SM SCT020
     FM302100 36003KT P6SM SKC=



000
FTUS43 KPAH 292300
TAFPAH
TAF
KPAH 292336Z 3000/3024 34011G18KT P6SM OVC035
     FM300315 34006G18KT P6SM OVC026
     FM300830 34009G16KT P6SM OVC019
     FM301430 36007KT P6SM OVC022
     FM302000 01005KT P6SM SCT022
     FM302200 36003KT P6SM SKC=



000
FTUS43 KPAH 292300
TAFEVV
TAF
KEVV 292336Z 3000/3024 34011G18KT P6SM OVC030
     FM300315 34006G18KT P6SM OVC026
     FM301800 36007KT P6SM BKN028
     FM302200 36003KT P6SM SKC=



000
FTUS43 KPAH 292300
TAFCGI
TAF
KCGI 292336Z 3000/3024 34011G18KT P6SM OVC027
     FM300830 34009G16KT P6SM OVC018
     FM301800 01006KT P6SM SCT020
     FM302100 36003KT P6SM SKC=



000
FTUS43 KPAH 292100 AAA
TAFPAH
TAF AMD
KPAH 292118Z 2921/3018 32012G21KT P6SM OVC035
     FM300100 32008KT P6SM OVC025
     FM301500 01008KT P6SM SCT025=



000
FTUS43 KPAH 292100 AAA
TAFCGI
TAF AMD
KCGI 292117Z 2921/3018 34012G19KT P6SM OVC035
     FM300100 34008KT P6SM OVC028
     FM301300 01008KT P6SM SCT025=



000
FTUS43 KPAH 292000 AAA
TAFEVV
TAF AMD
KEVV 292001Z 2920/3018 31013G22KT P6SM OVC020
     FM300000 31010G16KT P6SM OVC015
     FM301400 36009KT P6SM BKN020=



000
FTUS43 KPAH 291700
TAFPAH
TAF
KPAH 291720Z 2918/3018 32014G23KT P6SM OVC029
     FM300000 32008KT P6SM OVC025
     FM301500 01008KT P6SM SCT025=



000
FTUS43 KPAH 291700
TAFCGI
TAF
KCGI 291720Z 2918/3018 34016G25KT P6SM OVC028
     FM300000 34008KT P6SM OVC025
     FM301300 01008KT P6SM SCT025=



000
FTUS43 KPAH 291700
TAFEVV
TAF
KEVV 291720Z 2918/3018 30017G25KT P6SM OVC020
     FM292000 30014G23KT P6SM OVC018
     FM300000 31010G16KT P6SM OVC015
     FM301400 36009KT P6SM BKN020=



000
FTUS43 KPAH 291600 AAA
TAFCGI
TAF AMD
KCGI 291612Z 2916/3012 32016G25KT P6SM BKN035
     FM291800 31015G24KT P6SM OVC025
     FM300000 34009KT P6SM BKN030
     FM300600 33006KT P6SM SCT035=



000
FTUS43 KPAH 291600 AAB
TAFEVV
TAF AMD
KEVV 291604Z 2916/3012 31014G23KT P6SM BKN027 OVC035
     FM291800 30016G25KT P6SM OVC020
     FM300000 31011G16KT P6SM OVC025=



000
FTUS43 KPAH 291500 AAA
TAFEVV
TAF AMD
KEVV 291508Z 2915/3012 27017G26KT P6SM BKN035
     FM291700 30016G25KT P6SM OVC020
     FM300000 31011G16KT P6SM OVC025=



000
FTUS43 KPAH 291500 AAA
TAFPAH
TAF AMD
KPAH 291506Z 2915/3012 26012G20KT P6SM SKC
     FM291600 28015G28KT P6SM OVC028
     FM300000 33009KT P6SM BKN030
     FM300700 34005KT P6SM SCT035=



000
FTUS43 KPAH 291100
TAFEVV
TAF
KEVV 291132Z 2912/3012 21011G17KT P6SM SCT150
     FM291400 26015G28KT P6SM OVC020
     FM300000 31011G16KT P6SM OVC025=



000
FTUS43 KPAH 291100
TAFPAH
TAF
KPAH 291132Z 2912/3012 22012KT P6SM SKC
     FM291500 28015G28KT P6SM OVC022
     FM300000 33009KT P6SM BKN030
     FM300700 34005KT P6SM SCT035=



000
FTUS43 KPAH 291100
TAFCGI
TAF
KCGI 291132Z 2912/3012 21010G16KT P6SM SKC
     FM291400 29015G28KT P6SM OVC022
     FM300000 34009KT P6SM BKN030
     FM300600 33006KT P6SM SCT035=



000
FTUS43 KPAH 290900 AAA
TAFCGI
TAF AMD
KCGI 290916Z 2909/3006 21010G16KT P6SM BKN150
     FM291400 29012G22KT P6SM BKN015
     FM292100 32014G24KT P6SM OVC025
     FM300000 34012KT P6SM BKN040=



000
FTUS43 KPAH 290500
TAFEVV
TAF
KEVV 290529Z 2906/3006 15008KT P6SM SCT250
     FM290900 20012G20KT P6SM SCT100 SCT250
     FM291400 26014G24KT P6SM OVC015
     FM292100 30015G25KT P6SM OVC025=



000
FTUS43 KPAH 290500
TAFPAH
TAF
KPAH 290529Z 2906/3006 18010G15KT P6SM SCT250
     FM291500 28012G22KT P6SM BKN015
     FM292200 32014G24KT P6SM OVC025
     FM300100 33010KT P6SM BKN040=



000
FTUS43 KPAH 290500
TAFCGI
TAF
KCGI 290529Z 2906/3006 18010G15KT P6SM SCT250
     FM291400 29012G22KT P6SM BKN015
     FM292100 32014G24KT P6SM OVC025
     FM300000 34012KT P6SM BKN040=



000
FTUS43 KPAH 290200 AAA
TAFCGI
TAF AMD
KCGI 290252Z 2903/2924 15008KT P6SM SCT300
     FM290600 19012G19KT P6SM SCT100
     FM291400 30013G22KT P6SM BKN020
     FM292100 32014G24KT P6SM OVC035=



000
FTUS43 KPAH 282300
TAFCGI
TAF
KCGI 282337Z 2900/2924 16010G16KT P6SM SCT300
     FM290600 19012G19KT P6SM SCT100
     FM291400 30013G22KT P6SM BKN020
     FM292100 32014G24KT P6SM OVC035=



000
FTUS43 KPAH 282300
TAFEVV
TAF
KEVV 282337Z 2900/2924 15010KT P6SM SCT300
     FM290800 20012G20KT P6SM SCT035 BKN080
     FM291400 27012G22KT P6SM OVC015
     FM292100 30014G24KT P6SM OVC025=



000
FTUS43 KPAH 282300
TAFPAH
TAF
KPAH 282337Z 2900/2924 15008KT P6SM SCT300
     FM290700 20011G18KT P6SM SCT100
     FM291500 29012G20KT P6SM BKN020
     FM292200 32014G24KT P6SM OVC035=



000
FTUS43 KPAH 281700
TAFEVV
TAF
KEVV 281737Z 2818/2918 15009KT P6SM SCT300
     FM290800 20012G20KT P6SM SCT035 BKN080
     FM291400 26014G23KT P6SM BKN012=



000
FTUS43 KPAH 281700
TAFPAH
TAF
KPAH 281737Z 2818/2918 15008KT P6SM SCT300
     FM290600 20011G18KT P6SM SCT100
     FM291500 28012G19KT P6SM BKN020=



000
FTUS43 KPAH 281700
TAFCGI
TAF
KCGI 281737Z 2818/2918 16010G16KT P6SM SCT300
     FM290600 19012G19KT P6SM SCT100
     FM291400 30013G20KT P6SM BKN020=



000
FTUS43 KPAH 281100
TAFEVV
TAF
KEVV 281123Z 2812/2912 09003KT P6SM SKC
     FM281600 14008KT P6SM SCT250
     FM290600 18012G20KT P6SM SCT035 BKN080=



000
FTUS43 KPAH 281100
TAFPAH
TAF
KPAH 281123Z 2812/2912 11004KT 5SM BR SKC
     FM281400 14008KT P6SM SCT250
     FM290600 20012G18KT P6SM SCT040 BKN100=



000
FTUS43 KPAH 281100
TAFCGI
TAF
KCGI 281123Z 2812/2912 00000KT P6SM SKC
     FM281500 14007KT P6SM SCT250
     FM281800 16010G16KT P6SM SCT250
     FM290600 20012KT P6SM SCT040 BKN150=



000
FTUS43 KPAH 281000 AAA
TAFPAH
TAF AMD
KPAH 281019Z 2810/2906 VRB03KT 4SM BR SKC
     FM281400 16008KT P6SM SCT250=



000
FTUS43 KPAH 280800 AAA
TAFEVV
TAF AMD
KEVV 280817Z 2808/2906 06005KT P6SM OVC019
      TEMPO 2809/2810 SCT015
     FM281000 VRB03KT P6SM SCT020
     FM281500 15008KT P6SM SCT250=



000
FTUS43 KPAH 280500
TAFCGI
TAF
KCGI 280540Z 2806/2906 VRB03KT P6SM SKC
     FM281500 16007KT P6SM SCT250
     FM281800 17010G16KT P6SM SCT250=



000
FTUS43 KPAH 280500
TAFEVV
TAF
KEVV 280540Z 2806/2906 06005KT P6SM BKN015
      TEMPO 2807/2809 SCT015
     FM280900 VRB03KT P6SM SCT020
     FM281500 15008KT P6SM SCT250=



000
FTUS43 KPAH 280500
TAFPAH
TAF
KPAH 280540Z 2806/2906 VRB03KT P6SM FEW035
     FM281500 16008KT P6SM SCT250=



000
FTUS43 KPAH 272300
TAFCGI
TAF
KCGI 272330Z 2800/2824 04006KT P6SM SCT035
     FM280100 VRB03KT P6SM FEW035
     FM281500 14007KT P6SM SCT250
     FM281800 17010G16KT P6SM SCT250=



000
FTUS43 KPAH 272300
TAFEVV
TAF
KEVV 272330Z 2800/2824 01005KT P6SM BKN015
      TEMPO 2803/2806 SCT015
     FM280600 VRB02KT P6SM SCT020
     FM281500 13008KT P6SM SCT250=



000
FTUS43 KPAH 272300
TAFPAH
TAF
KPAH 272330Z 2800/2824 36006KT P6SM BKN035
      TEMPO 2800/2802 SCT035
     FM280200 VRB02KT P6SM FEW035
     FM281500 14008KT P6SM SCT250=



000
FTUS43 KPAH 272000 AAA
TAFEVV
TAF AMD
KEVV 272019Z 2720/2818 35007KT P6SM OVC011
      TEMPO 2720/2724 5SM HZ SCT011 BKN025
     FM280000 01005KT P6SM BKN015
     FM280500 VRB03KT P6SM SCT020
     FM281500 12005KT P6SM SCT250=



000
FTUS43 KPAH 272000 AAA
TAFCGI
TAF AMD
KCGI 272017Z 2720/2818 36008KT P6SM BKN035
      TEMPO 2721/2801 SCT035
     FM280100 VRB03KT P6SM SCT035
     FM281500 13007KT P6SM SCT250=



000
FTUS43 KPAH 272000 AAA
TAFPAH
TAF AMD
KPAH 272017Z 2720/2818 34008KT P6SM BKN035
      TEMPO 2722/2802 SCT035
     FM280200 VRB02KT P6SM SCT035
     FM281500 13006KT P6SM SCT250=



000
FTUS43 KPAH 271700
TAFEVV
TAF
KEVV 271720Z 2718/2818 01007KT P6SM OVC007
      TEMPO 2718/2722 5SM HZ SCT007 OVC015
     FM272200 01005KT P6SM BKN015
     FM280500 VRB03KT P6SM SCT020
     FM281500 12005KT P6SM SCT250=



000
FTUS43 KPAH 271700
TAFCGI
TAF
KCGI 271720Z 2718/2818 36011KT P6SM SCT015 BKN025
     FM280100 VRB03KT P6SM SCT030
     FM281500 13007KT P6SM SCT250=



000
FTUS43 KPAH 271700
TAFPAH
TAF
KPAH 271720Z 2718/2818 35011KT P6SM SCT015 BKN030
      TEMPO 2718/2722 BKN015
     FM280200 VRB02KT P6SM SCT030
     FM281500 13006KT P6SM SCT250=



000
FTUS43 KPAH 271500 AAB
TAFEVV
TAF AMD
KEVV 271511Z 2715/2812 01006KT 4SM BR OVC006
     FM271800 36006KT P6SM OVC014
     FM272000 36005KT P6SM BKN025
     FM280600 VRB02KT P6SM SCT030=



000
FTUS43 KPAH 271500 AAA
TAFPAH
TAF AMD
KPAH 271510Z 2715/2812 34006KT P6SM BKN012
      TEMPO 2715/2718 6SM HZ SCT012 BKN022
     FM271800 35008KT P6SM BKN030
     FM280300 VRB02KT P6SM SCT035=



000
FTUS43 KPAH 271500 AAA
TAFCGI
TAF AMD
KCGI 271509Z 2715/2812 33007KT P6SM BKN018
     FM271700 36008KT P6SM SCT018 BKN030
     FM280100 VRB02KT P6SM SCT035=



    US Dept of Commerce
    National Oceanic and Atmospheric Administration
    National Weather Service
    1325 East West Highway
    Silver Spring, MD 20910
    Page Author: NWS Internet Services Team
Disclaimer
Information Quality
Credits
Glossary
Privacy Policy
Freedom of Information Act (FOIA)
About Us
Career Opportunities